sensor_id;sensor_type;location;lat;lon;timestamp;P1;durP1;ratioP1;P2;durP2;ratioP2
66761;SDS011;53672;48.176;16.338;2022-07-06T00:02:54;7.40;;;5.60;;
66761;SDS011;53672;48.176;16.338;2022-07-06T00:07:54;8.30;;;5.63;;
66761;SDS011;53672;48.176;16.338;2022-07-06T00:12:55;7.70;;;5.70;;
66761;SDS011;53672;48.176;16.338;2022-07-06T00:17:56;9.87;;;6.00;;
66761;SDS011;53672;48.176;16.338;2022-07-06T00:22:57;7.50;;;5.60;;
66761;SDS011;53672;48.176;16.338;2022-07-06T00:27:57;11.57;;;6.70;;
66761;SDS011;53672;48.176;16.338;2022-07-06T00:32:59;8.90;;;6.40;;
66761;SDS011;53672;48.176;16.338;2022-07-06T00:38:00;8.60;;;7.00;;
66761;SDS011;53672;48.176;16.338;2022-07-06T00:43:00;12.17;;;7.30;;
66761;SDS011;53672;48.176;16.338;2022-07-06T00:48:02;9.57;;;7.60;;
66761;SDS011;53672;48.176;16.338;2022-07-06T00:53:04;10.80;;;8.33;;
66761;SDS011;53672;48.176;16.338;2022-07-06T00:58:05;12.70;;;8.90;;
66761;SDS011;53672;48.176;16.338;2022-07-06T01:03:08;10.97;;;8.23;;
66761;SDS011;53672;48.176;16.338;2022-07-06T01:08:09;10.60;;;8.38;;
66761;SDS011;53672;48.176;16.338;2022-07-06T01:13:09;10.10;;;8.30;;
66761;SDS011;53672;48.176;16.338;2022-07-06T01:18:11;13.07;;;8.60;;
66761;SDS011;53672;48.176;16.338;2022-07-06T01:23:13;11.93;;;9.40;;
66761;SDS011;53672;48.176;16.338;2022-07-06T01:28:14;11.98;;;9.15;;
66761;SDS011;53672;48.176;16.338;2022-07-06T01:33:14;12.05;;;9.77;;
66761;SDS011;53672;48.176;16.338;2022-07-06T01:38:16;12.57;;;9.77;;
66761;SDS011;53672;48.176;16.338;2022-07-06T01:43:16;13.70;;;9.27;;
66761;SDS011;53672;48.176;16.338;2022-07-06T01:48:17;12.10;;;9.57;;
66761;SDS011;53672;48.176;16.338;2022-07-06T01:53:18;14.27;;;10.47;;
66761;SDS011;53672;48.176;16.338;2022-07-06T01:58:19;13.95;;;9.88;;
66761;SDS011;53672;48.176;16.338;2022-07-06T02:03:19;11.97;;;10.00;;
66761;SDS011;53672;48.176;16.338;2022-07-06T02:08:21;13.40;;;9.90;;
66761;SDS011;53672;48.176;16.338;2022-07-06T02:13:22;13.13;;;9.27;;
66761;SDS011;53672;48.176;16.338;2022-07-06T02:18:22;12.23;;;9.53;;
66761;SDS011;53672;48.176;16.338;2022-07-06T02:23:24;13.57;;;9.37;;
66761;SDS011;53672;48.176;16.338;2022-07-06T02:28:24;11.90;;;9.60;;
66761;SDS011;53672;48.176;16.338;2022-07-06T02:33:25;13.03;;;10.10;;
66761;SDS011;53672;48.176;16.338;2022-07-06T02:38:27;11.77;;;9.60;;
66761;SDS011;53672;48.176;16.338;2022-07-06T02:43:27;11.73;;;9.10;;
66761;SDS011;53672;48.176;16.338;2022-07-06T02:48:28;12.27;;;9.03;;
66761;SDS011;53672;48.176;16.338;2022-07-06T02:53:29;12.60;;;9.07;;
66761;SDS011;53672;48.176;16.338;2022-07-06T02:58:30;12.68;;;9.18;;
66761;SDS011;53672;48.176;16.338;2022-07-06T03:03:30;13.10;;;9.40;;
66761;SDS011;53672;48.176;16.338;2022-07-06T03:08:32;13.23;;;9.60;;
66761;SDS011;53672;48.176;16.338;2022-07-06T03:13:32;11.95;;;9.02;;
66761;SDS011;53672;48.176;16.338;2022-07-06T03:18:34;11.43;;;8.68;;
66761;SDS011;53672;48.176;16.338;2022-07-06T03:23:36;12.90;;;9.50;;
66761;SDS011;53672;48.176;16.338;2022-07-06T03:28:36;11.57;;;9.10;;
66761;SDS011;53672;48.176;16.338;2022-07-06T03:33:37;10.97;;;8.37;;
66761;SDS011;53672;48.176;16.338;2022-07-06T03:38:39;11.23;;;8.57;;
66761;SDS011;53672;48.176;16.338;2022-07-06T03:43:39;11.80;;;8.60;;
66761;SDS011;53672;48.176;16.338;2022-07-06T03:48:40;10.43;;;8.40;;
66761;SDS011;53672;48.176;16.338;2022-07-06T03:53:41;13.27;;;8.25;;
66761;SDS011;53672;48.176;16.338;2022-07-06T03:58:42;10.63;;;8.23;;
66761;SDS011;53672;48.176;16.338;2022-07-06T04:03:42;10.27;;;8.15;;
66761;SDS011;53672;48.176;16.338;2022-07-06T04:08:44;10.75;;;7.47;;
66761;SDS011;53672;48.176;16.338;2022-07-06T04:13:45;12.43;;;8.23;;
66761;SDS011;53672;48.176;16.338;2022-07-06T04:18:45;9.73;;;7.43;;
66761;SDS011;53672;48.176;16.338;2022-07-06T04:23:47;10.57;;;7.78;;
66761;SDS011;53672;48.176;16.338;2022-07-06T04:28:48;10.43;;;7.32;;
66761;SDS011;53672;48.176;16.338;2022-07-06T04:33:48;11.10;;;7.93;;
66761;SDS011;53672;48.176;16.338;2022-07-06T04:38:50;10.03;;;6.93;;
66761;SDS011;53672;48.176;16.338;2022-07-06T04:43:50;10.18;;;7.47;;
66761;SDS011;53672;48.176;16.338;2022-07-06T04:48:51;8.10;;;6.43;;
66761;SDS011;53672;48.176;16.338;2022-07-06T04:53:52;8.70;;;6.60;;
66761;SDS011;53672;48.176;16.338;2022-07-06T04:58:53;7.88;;;6.20;;
66761;SDS011;53672;48.176;16.338;2022-07-06T05:03:53;6.40;;;5.30;;
66761;SDS011;53672;48.176;16.338;2022-07-06T05:08:55;6.67;;;5.40;;
66761;SDS011;53672;48.176;16.338;2022-07-06T05:13:56;8.17;;;5.20;;
66761;SDS011;53672;48.176;16.338;2022-07-06T05:18:56;6.75;;;5.43;;
66761;SDS011;53672;48.176;16.338;2022-07-06T05:23:58;8.50;;;5.30;;
66761;SDS011;53672;48.176;16.338;2022-07-06T05:28:58;7.65;;;5.22;;
66761;SDS011;53672;48.176;16.338;2022-07-06T05:33:59;7.83;;;5.27;;
66761;SDS011;53672;48.176;16.338;2022-07-06T05:39:01;8.37;;;4.93;;
66761;SDS011;53672;48.176;16.338;2022-07-06T05:44:01;8.75;;;5.43;;
66761;SDS011;53672;48.176;16.338;2022-07-06T05:49:02;7.43;;;4.93;;
66761;SDS011;53672;48.176;16.338;2022-07-06T05:54:03;6.73;;;5.03;;
66761;SDS011;53672;48.176;16.338;2022-07-06T05:59:04;6.95;;;4.70;;
66761;SDS011;53672;48.176;16.338;2022-07-06T06:04:04;6.60;;;4.87;;
66761;SDS011;53672;48.176;16.338;2022-07-06T06:09:06;10.70;;;5.90;;
66761;SDS011;53672;48.176;16.338;2022-07-06T06:14:07;8.30;;;4.85;;
66761;SDS011;53672;48.176;16.338;2022-07-06T06:19:07;6.30;;;5.00;;
66761;SDS011;53672;48.176;16.338;2022-07-06T06:24:09;6.30;;;4.40;;
66761;SDS011;53672;48.176;16.338;2022-07-06T06:29:09;6.33;;;4.63;;
66761;SDS011;53672;48.176;16.338;2022-07-06T06:34:10;6.30;;;4.80;;
66761;SDS011;53672;48.176;16.338;2022-07-06T06:39:12;8.20;;;5.20;;
66761;SDS011;53672;48.176;16.338;2022-07-06T06:44:12;6.75;;;4.97;;
66761;SDS011;53672;48.176;16.338;2022-07-06T06:49:13;7.00;;;4.70;;
66761;SDS011;53672;48.176;16.338;2022-07-06T06:54:14;5.10;;;4.00;;
66761;SDS011;53672;48.176;16.338;2022-07-06T06:59:15;8.57;;;5.68;;
66761;SDS011;53672;48.176;16.338;2022-07-06T07:04:15;6.43;;;4.63;;
66761;SDS011;53672;48.176;16.338;2022-07-06T07:09:17;6.77;;;4.40;;
66761;SDS011;53672;48.176;16.338;2022-07-06T07:14:17;7.20;;;4.67;;
66761;SDS011;53672;48.176;16.338;2022-07-06T07:19:18;8.60;;;4.47;;
66761;SDS011;53672;48.176;16.338;2022-07-06T07:24:20;6.75;;;4.38;;
66761;SDS011;53672;48.176;16.338;2022-07-06T07:29:20;7.37;;;4.67;;
66761;SDS011;53672;48.176;16.338;2022-07-06T07:34:21;6.73;;;4.70;;
66761;SDS011;53672;48.176;16.338;2022-07-06T07:39:22;6.30;;;4.33;;
66761;SDS011;53672;48.176;16.338;2022-07-06T07:44:23;6.47;;;4.38;;
66761;SDS011;53672;48.176;16.338;2022-07-06T07:49:24;6.73;;;5.00;;
66761;SDS011;53672;48.176;16.338;2022-07-06T07:54:25;6.90;;;4.60;;
66761;SDS011;53672;48.176;16.338;2022-07-06T07:59:26;8.30;;;5.00;;
66761;SDS011;53672;48.176;16.338;2022-07-06T08:04:26;8.40;;;5.30;;
66761;SDS011;53672;48.176;16.338;2022-07-06T08:09:28;8.57;;;5.30;;
66761;SDS011;53672;48.176;16.338;2022-07-06T08:14:29;7.35;;;4.78;;
66761;SDS011;53672;48.176;16.338;2022-07-06T08:19:29;7.73;;;5.60;;
66761;SDS011;53672;48.176;16.338;2022-07-06T08:24:31;8.53;;;5.27;;
66761;SDS011;53672;48.176;16.338;2022-07-06T08:29:31;5.17;;;4.00;;
66761;SDS011;53672;48.176;16.338;2022-07-06T08:34:32;7.13;;;4.15;;
66761;SDS011;53672;48.176;16.338;2022-07-06T08:39:35;5.93;;;4.13;;
66761;SDS011;53672;48.176;16.338;2022-07-06T08:44:36;5.93;;;3.85;;
66761;SDS011;53672;48.176;16.338;2022-07-06T08:49:38;6.70;;;4.10;;
66761;SDS011;53672;48.176;16.338;2022-07-06T08:54:40;6.87;;;4.30;;
66761;SDS011;53672;48.176;16.338;2022-07-06T08:59:41;6.55;;;3.92;;
66761;SDS011;53672;48.176;16.338;2022-07-06T09:04:42;7.17;;;4.30;;
66761;SDS011;53672;48.176;16.338;2022-07-06T09:09:45;5.25;;;3.92;;
66761;SDS011;53672;48.176;16.338;2022-07-06T09:14:46;8.30;;;4.50;;
66761;SDS011;53672;48.176;16.338;2022-07-06T09:19:46;5.75;;;3.97;;
66761;SDS011;53672;48.176;16.338;2022-07-06T09:24:48;5.97;;;3.80;;
66761;SDS011;53672;48.176;16.338;2022-07-06T09:29:49;5.87;;;4.07;;
66761;SDS011;53672;48.176;16.338;2022-07-06T09:34:49;6.10;;;3.40;;
66761;SDS011;53672;48.176;16.338;2022-07-06T09:39:51;5.40;;;3.92;;
66761;SDS011;53672;48.176;16.338;2022-07-06T09:44:52;5.43;;;3.83;;
66761;SDS011;53672;48.176;16.338;2022-07-06T09:49:55;4.70;;;3.88;;
66761;SDS011;53672;48.176;16.338;2022-07-06T09:54:57;5.97;;;4.03;;
66761;SDS011;53672;48.176;16.338;2022-07-06T09:59:57;5.93;;;4.25;;
66761;SDS011;53672;48.176;16.338;2022-07-06T10:04:58;5.37;;;3.70;;
66761;SDS011;53672;48.176;16.338;2022-07-06T10:10:01;5.63;;;3.92;;
66761;SDS011;53672;48.176;16.338;2022-07-06T10:15:02;5.38;;;4.10;;
66761;SDS011;53672;48.176;16.338;2022-07-06T10:20:03;8.40;;;3.83;;
66761;SDS011;53672;48.176;16.338;2022-07-06T10:25:09;5.38;;;3.72;;
66761;SDS011;53672;48.176;16.338;2022-07-06T10:30:10;5.40;;;3.63;;
66761;SDS011;53672;48.176;16.338;2022-07-06T10:35:11;6.22;;;3.90;;
66761;SDS011;53672;48.176;16.338;2022-07-06T10:40:14;5.53;;;4.30;;
66761;SDS011;53672;48.176;16.338;2022-07-06T10:45:15;5.70;;;3.90;;
66761;SDS011;53672;48.176;16.338;2022-07-06T10:50:20;8.00;;;4.13;;
66761;SDS011;53672;48.176;16.338;2022-07-06T10:55:34;6.90;;;4.10;;
66761;SDS011;53672;48.176;16.338;2022-07-06T11:00:49;6.65;;;4.50;;
66761;SDS011;53672;48.176;16.338;2022-07-06T11:05:57;6.10;;;3.88;;
66761;SDS011;53672;48.176;16.338;2022-07-06T11:11:00;4.93;;;3.20;;
66761;SDS011;53672;48.176;16.338;2022-07-06T11:16:10;5.77;;;2.90;;
66761;SDS011;53672;48.176;16.338;2022-07-06T11:21:15;6.60;;;2.80;;
66761;SDS011;53672;48.176;16.338;2022-07-06T11:26:17;5.57;;;3.38;;
66761;SDS011;53672;48.176;16.338;2022-07-06T11:31:18;6.30;;;3.17;;
66761;SDS011;53672;48.176;16.338;2022-07-06T11:36:20;4.83;;;3.10;;
66761;SDS011;53672;48.176;16.338;2022-07-06T11:41:23;4.10;;;2.50;;
66761;SDS011;53672;48.176;16.338;2022-07-06T11:46:24;5.90;;;3.00;;
66761;SDS011;53672;48.176;16.338;2022-07-06T11:51:26;5.78;;;2.88;;
66761;SDS011;53672;48.176;16.338;2022-07-06T11:56:30;4.68;;;2.30;;
66761;SDS011;53672;48.176;16.338;2022-07-06T12:01:31;6.20;;;2.35;;
66761;SDS011;53672;48.176;16.338;2022-07-06T12:06:31;6.77;;;4.07;;
66761;SDS011;53672;48.176;16.338;2022-07-06T12:11:33;11.03;;;4.73;;
66761;SDS011;53672;48.176;16.338;2022-07-06T12:16:35;4.85;;;3.30;;
66761;SDS011;53672;48.176;16.338;2022-07-06T12:21:36;5.83;;;3.60;;
66761;SDS011;53672;48.176;16.338;2022-07-06T12:26:44;5.28;;;3.58;;
66761;SDS011;53672;48.176;16.338;2022-07-06T12:31:48;6.70;;;3.47;;
66761;SDS011;53672;48.176;16.338;2022-07-06T12:36:50;7.07;;;3.72;;
66761;SDS011;53672;48.176;16.338;2022-07-06T12:41:53;4.90;;;3.20;;
66761;SDS011;53672;48.176;16.338;2022-07-06T12:47:01;4.37;;;3.20;;
66761;SDS011;53672;48.176;16.338;2022-07-06T12:52:08;5.00;;;3.40;;
66761;SDS011;53672;48.176;16.338;2022-07-06T12:57:12;5.45;;;3.33;;
66761;SDS011;53672;48.176;16.338;2022-07-06T13:02:18;5.10;;;3.75;;
66761;SDS011;53672;48.176;16.338;2022-07-06T13:07:20;5.13;;;3.55;;
66761;SDS011;53672;48.176;16.338;2022-07-06T13:12:22;4.63;;;3.40;;
66761;SDS011;53672;48.176;16.338;2022-07-06T13:17:22;5.60;;;3.43;;
66761;SDS011;53672;48.176;16.338;2022-07-06T13:22:23;6.60;;;3.78;;
66761;SDS011;53672;48.176;16.338;2022-07-06T13:27:25;5.80;;;3.20;;
66761;SDS011;53672;48.176;16.338;2022-07-06T13:32:26;5.70;;;2.97;;
66761;SDS011;53672;48.176;16.338;2022-07-06T13:37:26;5.27;;;3.43;;
66761;SDS011;53672;48.176;16.338;2022-07-06T13:42:28;5.30;;;3.33;;
66761;SDS011;53672;48.176;16.338;2022-07-06T13:47:28;5.00;;;3.20;;
66761;SDS011;53672;48.176;16.338;2022-07-06T13:52:29;6.10;;;3.07;;
66761;SDS011;53672;48.176;16.338;2022-07-06T13:57:30;3.97;;;2.50;;
66761;SDS011;53672;48.176;16.338;2022-07-06T14:02:31;4.43;;;2.58;;
66761;SDS011;53672;48.176;16.338;2022-07-06T14:07:31;6.20;;;2.93;;
66761;SDS011;53672;48.176;16.338;2022-07-06T14:12:33;5.20;;;2.73;;
66761;SDS011;53672;48.176;16.338;2022-07-06T14:17:34;4.00;;;2.60;;
66761;SDS011;53672;48.176;16.338;2022-07-06T14:22:34;5.00;;;2.90;;
66761;SDS011;53672;48.176;16.338;2022-07-06T14:27:36;6.07;;;3.63;;
66761;SDS011;53672;48.176;16.338;2022-07-06T14:32:37;5.40;;;3.15;;
66761;SDS011;53672;48.176;16.338;2022-07-06T14:37:38;5.55;;;3.20;;
66761;SDS011;53672;48.176;16.338;2022-07-06T14:42:40;7.37;;;3.40;;
66761;SDS011;53672;48.176;16.338;2022-07-06T14:47:40;5.53;;;3.30;;
66761;SDS011;53672;48.176;16.338;2022-07-06T14:52:41;7.47;;;3.63;;
66761;SDS011;53672;48.176;16.338;2022-07-06T14:57:43;6.73;;;3.93;;
66761;SDS011;53672;48.176;16.338;2022-07-06T15:02:44;6.25;;;4.40;;
66761;SDS011;53672;48.176;16.338;2022-07-06T15:07:44;7.05;;;4.05;;
66761;SDS011;53672;48.176;16.338;2022-07-06T15:12:46;7.23;;;4.37;;
66761;SDS011;53672;48.176;16.338;2022-07-06T15:17:47;6.22;;;3.97;;
66761;SDS011;53672;48.176;16.338;2022-07-06T15:22:48;5.65;;;3.40;;
66761;SDS011;53672;48.176;16.338;2022-07-06T15:27:50;4.97;;;3.37;;
66761;SDS011;53672;48.176;16.338;2022-07-06T15:32:51;4.73;;;3.20;;
66761;SDS011;53672;48.176;16.338;2022-07-06T15:37:51;4.95;;;3.15;;
66761;SDS011;53672;48.176;16.338;2022-07-06T15:42:53;4.90;;;3.20;;
66761;SDS011;53672;48.176;16.338;2022-07-06T15:47:53;5.17;;;2.90;;
66761;SDS011;53672;48.176;16.338;2022-07-06T15:52:54;4.83;;;2.87;;
66761;SDS011;53672;48.176;16.338;2022-07-06T15:57:56;4.32;;;2.90;;
66761;SDS011;53672;48.176;16.338;2022-07-06T16:02:57;5.70;;;3.03;;
66761;SDS011;53672;48.176;16.338;2022-07-06T16:07:57;7.10;;;3.60;;
66761;SDS011;53672;48.176;16.338;2022-07-06T16:12:59;4.57;;;2.85;;
66761;SDS011;53672;48.176;16.338;2022-07-06T16:17:59;6.20;;;3.50;;
66761;SDS011;53672;48.176;16.338;2022-07-06T16:23:00;4.50;;;2.90;;
66761;SDS011;53672;48.176;16.338;2022-07-06T16:28:02;5.80;;;2.70;;
66761;SDS011;53672;48.176;16.338;2022-07-06T16:33:02;5.07;;;2.83;;
66761;SDS011;53672;48.176;16.338;2022-07-06T16:38:03;5.73;;;2.97;;
66761;SDS011;53672;48.176;16.338;2022-07-06T16:43:05;4.83;;;3.20;;
66761;SDS011;53672;48.176;16.338;2022-07-06T16:48:05;5.35;;;3.15;;
66761;SDS011;53672;48.176;16.338;2022-07-06T16:53:06;6.30;;;3.23;;
66761;SDS011;53672;48.176;16.338;2022-07-06T16:58:08;5.17;;;3.20;;
66761;SDS011;53672;48.176;16.338;2022-07-06T17:03:08;4.93;;;3.08;;
66761;SDS011;53672;48.176;16.338;2022-07-06T17:08:09;6.50;;;3.43;;
66761;SDS011;53672;48.176;16.338;2022-07-06T17:13:11;5.60;;;3.33;;
66761;SDS011;53672;48.176;16.338;2022-07-06T17:18:11;5.68;;;3.63;;
66761;SDS011;53672;48.176;16.338;2022-07-06T17:23:13;4.60;;;3.17;;
66761;SDS011;53672;48.176;16.338;2022-07-06T17:28:15;5.18;;;3.25;;
66761;SDS011;53672;48.176;16.338;2022-07-06T17:33:15;5.87;;;3.70;;
66761;SDS011;53672;48.176;16.338;2022-07-06T17:38:16;4.27;;;2.80;;
66761;SDS011;53672;48.176;16.338;2022-07-06T17:43:18;5.18;;;3.78;;
66761;SDS011;53672;48.176;16.338;2022-07-06T17:48:18;4.97;;;3.37;;
66761;SDS011;53672;48.176;16.338;2022-07-06T17:53:19;4.70;;;3.13;;
66761;SDS011;53672;48.176;16.338;2022-07-06T17:58:21;11.93;;;6.70;;
66761;SDS011;53672;48.176;16.338;2022-07-06T18:03:21;14.77;;;7.80;;
66761;SDS011;53672;48.176;16.338;2022-07-06T18:08:22;10.43;;;5.43;;
66761;SDS011;53672;48.176;16.338;2022-07-06T18:13:23;6.60;;;4.80;;
66761;SDS011;53672;48.176;16.338;2022-07-06T18:18:24;6.35;;;4.20;;
66761;SDS011;53672;48.176;16.338;2022-07-06T18:23:25;6.77;;;4.10;;
66761;SDS011;53672;48.176;16.338;2022-07-06T18:28:27;5.85;;;3.42;;
66761;SDS011;53672;48.176;16.338;2022-07-06T18:33:27;5.77;;;3.70;;
66761;SDS011;53672;48.176;16.338;2022-07-06T18:38:28;7.63;;;4.90;;
66761;SDS011;53672;48.176;16.338;2022-07-06T18:43:30;6.13;;;3.40;;
66761;SDS011;53672;48.176;16.338;2022-07-06T18:48:30;5.33;;;3.60;;
66761;SDS011;53672;48.176;16.338;2022-07-06T18:53:31;7.23;;;3.80;;
66761;SDS011;53672;48.176;16.338;2022-07-06T18:58:35;6.50;;;3.60;;
66761;SDS011;53672;48.176;16.338;2022-07-06T19:03:35;5.18;;;3.83;;
66761;SDS011;53672;48.176;16.338;2022-07-06T19:08:36;5.87;;;4.00;;
66761;SDS011;53672;48.176;16.338;2022-07-06T19:13:38;5.82;;;3.92;;
66761;SDS011;53672;48.176;16.338;2022-07-06T19:18:38;12.02;;;5.90;;
66761;SDS011;53672;48.176;16.338;2022-07-06T19:23:39;6.47;;;4.50;;
66761;SDS011;53672;48.176;16.338;2022-07-06T19:28:41;6.65;;;4.30;;
66761;SDS011;53672;48.176;16.338;2022-07-06T19:33:41;5.72;;;4.20;;
66761;SDS011;53672;48.176;16.338;2022-07-06T19:38:42;5.40;;;3.80;;
66761;SDS011;53672;48.176;16.338;2022-07-06T19:43:44;6.33;;;4.17;;
66761;SDS011;53672;48.176;16.338;2022-07-06T19:48:44;6.10;;;4.00;;
66761;SDS011;53672;48.176;16.338;2022-07-06T19:53:45;7.07;;;4.17;;
66761;SDS011;53672;48.176;16.338;2022-07-06T19:58:47;6.37;;;4.33;;
66761;SDS011;53672;48.176;16.338;2022-07-06T20:03:48;8.73;;;4.82;;
66761;SDS011;53672;48.176;16.338;2022-07-06T20:08:48;6.77;;;4.80;;
66761;SDS011;53672;48.176;16.338;2022-07-06T20:13:50;6.23;;;4.57;;
66761;SDS011;53672;48.176;16.338;2022-07-06T20:18:50;7.15;;;4.20;;
66761;SDS011;53672;48.176;16.338;2022-07-06T20:23:51;6.40;;;4.67;;
66761;SDS011;53672;48.176;16.338;2022-07-06T20:28:53;6.80;;;4.73;;
66761;SDS011;53672;48.176;16.338;2022-07-06T20:33:53;7.73;;;4.83;;
66761;SDS011;53672;48.176;16.338;2022-07-06T20:38:54;7.40;;;5.10;;
66761;SDS011;53672;48.176;16.338;2022-07-06T20:43:55;7.82;;;5.05;;
66761;SDS011;53672;48.176;16.338;2022-07-06T20:48:56;8.50;;;5.90;;
66761;SDS011;53672;48.176;16.338;2022-07-06T20:53:57;7.07;;;5.30;;
66761;SDS011;53672;48.176;16.338;2022-07-06T20:58:58;6.90;;;4.70;;
66761;SDS011;53672;48.176;16.338;2022-07-06T21:03:59;8.13;;;5.40;;
66761;SDS011;53672;48.176;16.338;2022-07-06T21:09:01;7.97;;;4.75;;
66761;SDS011;53672;48.176;16.338;2022-07-06T21:14:03;9.10;;;4.97;;
66761;SDS011;53672;48.176;16.338;2022-07-06T21:19:03;6.93;;;4.60;;
66761;SDS011;53672;48.176;16.338;2022-07-06T21:24:04;7.77;;;4.90;;
66761;SDS011;53672;48.176;16.338;2022-07-06T21:29:07;6.90;;;4.95;;
66761;SDS011;53672;48.176;16.338;2022-07-06T21:34:07;7.07;;;4.90;;
66761;SDS011;53672;48.176;16.338;2022-07-06T21:39:08;6.40;;;5.00;;
66761;SDS011;53672;48.176;16.338;2022-07-06T21:44:10;6.40;;;4.70;;
66761;SDS011;53672;48.176;16.338;2022-07-06T21:49:10;8.23;;;4.60;;
66761;SDS011;53672;48.176;16.338;2022-07-06T21:54:10;6.47;;;4.60;;
66761;SDS011;53672;48.176;16.338;2022-07-06T21:59:12;5.73;;;4.70;;
66761;SDS011;53672;48.176;16.338;2022-07-06T22:04:13;7.10;;;4.80;;
66761;SDS011;53672;48.176;16.338;2022-07-06T22:09:14;7.33;;;4.60;;
66761;SDS011;53672;48.176;16.338;2022-07-06T22:14:18;7.65;;;4.60;;
66761;SDS011;53672;48.176;16.338;2022-07-06T22:19:18;6.63;;;4.77;;
66761;SDS011;53672;48.176;16.338;2022-07-06T22:24:19;8.13;;;5.17;;
66761;SDS011;53672;48.176;16.338;2022-07-06T22:29:20;7.83;;;5.40;;
66761;SDS011;53672;48.176;16.338;2022-07-06T22:34:21;8.00;;;4.75;;
66761;SDS011;53672;48.176;16.338;2022-07-06T22:39:22;7.57;;;5.03;;
66761;SDS011;53672;48.176;16.338;2022-07-06T22:44:24;6.55;;;4.82;;
66761;SDS011;53672;48.176;16.338;2022-07-06T22:49:24;7.53;;;4.97;;
66761;SDS011;53672;48.176;16.338;2022-07-06T22:54:25;6.73;;;4.90;;
66761;SDS011;53672;48.176;16.338;2022-07-06T22:59:26;6.13;;;4.83;;
66761;SDS011;53672;48.176;16.338;2022-07-06T23:04:27;7.32;;;5.15;;
66761;SDS011;53672;48.176;16.338;2022-07-06T23:09:27;6.50;;;4.80;;
66761;SDS011;53672;48.176;16.338;2022-07-06T23:14:29;7.00;;;5.27;;
66761;SDS011;53672;48.176;16.338;2022-07-06T23:19:30;7.28;;;5.18;;
66761;SDS011;53672;48.176;16.338;2022-07-06T23:24:30;7.60;;;5.37;;
66761;SDS011;53672;48.176;16.338;2022-07-06T23:29:32;6.97;;;5.30;;
66761;SDS011;53672;48.176;16.338;2022-07-06T23:34:33;8.32;;;5.07;;
66761;SDS011;53672;48.176;16.338;2022-07-06T23:39:33;7.27;;;4.90;;
66761;SDS011;53672;48.176;16.338;2022-07-06T23:44:35;6.90;;;4.80;;
66761;SDS011;53672;48.176;16.338;2022-07-06T23:49:36;7.03;;;4.82;;
66761;SDS011;53672;48.176;16.338;2022-07-06T23:54:36;8.53;;;5.27;;
66761;SDS011;53672;48.176;16.338;2022-07-06T23:59:39;7.28;;;5.03;;
